Time;durP1;ratioP1;P1;durP2;ratioP2;P2;SDS_P1;SDS_P2;PMS_P1;PMS_P2;Temp;Humidity;BMP_temperature;BMP_pressure;BME280_temperature;BME280_humidity;BME280_pressure;Samples;Min_cycle;Max_cycle;Signal;HPM_P1;HPM_P2
2023/02/22 00:01:18;;;;;;;7.53;2.60;;;;;;;4.08;96.69;96224.19;5078847;28;20202;-67
2023/02/22 00:03:48;;;;;;;6.80;3.03;;;;;;;4.14;98.46;96215.00;5077744;28;20259;-67
2023/02/22 00:06:17;;;;;;;7.30;3.13;;;;;;;4.16;99.46;96213.88;5078494;28;20562;-68
2023/02/22 00:08:43;;;;;;;8.13;3.37;;;;;;;4.02;100.00;96218.72;5078623;28;20207;-68
2023/02/22 00:11:10;;;;;;;7.73;3.43;;;;;;;4.11;99.59;96205.69;5078498;28;20206;-68
2023/02/22 00:13:38;;;;;;;5.30;2.83;;;;;;;4.22;96.39;96215.94;5077333;28;20235;-68
2023/02/22 00:16:07;;;;;;;6.47;3.10;;;;;;;4.20;96.52;96215.28;5078435;28;20844;-67
2023/02/22 00:18:33;;;;;;;8.50;2.93;;;;;;;4.16;96.33;96206.06;5078110;28;20196;-68
2023/02/22 00:21:01;;;;;;;7.47;3.03;;;;;;;4.10;97.66;96217.06;5078093;28;20210;-68
2023/02/22 00:23:30;;;;;;;5.93;2.67;;;;;;;3.89;97.67;96211.16;5078665;28;20265;-68
2023/02/22 00:25:58;;;;;;;6.27;3.33;;;;;;;3.72;99.36;96205.81;5076673;28;20188;-68
2023/02/22 00:28:25;;;;;;;5.23;3.00;;;;;;;3.64;100.00;96203.91;5077567;28;20202;-68
2023/02/22 00:30:53;;;;;;;7.50;2.80;;;;;;;3.82;99.57;96204.88;5078431;28;20204;-68
2023/02/22 00:33:20;;;;;;;7.90;2.90;;;;;;;3.77;98.71;96204.44;5078832;28;20314;-68
2023/02/22 00:35:46;;;;;;;8.37;3.63;;;;;;;3.78;97.47;96203.50;5076587;28;20222;-68
2023/02/22 00:38:15;;;;;;;10.83;3.70;;;;;;;3.86;96.48;96202.81;5077722;28;20204;-68
2023/02/22 00:40:42;;;;;;;8.30;3.40;;;;;;;3.69;98.10;96201.72;5081965;28;20199;-68
2023/02/22 00:43:08;;;;;;;7.03;3.50;;;;;;;3.81;97.07;96200.59;5078074;28;20237;-67
2023/02/22 00:45:36;;;;;;;6.40;3.30;;;;;;;3.82;96.66;96197.03;5077426;28;20203;-68
2023/02/22 00:48:06;;;;;;;5.27;3.33;;;;;;;3.81;96.54;96192.78;5078410;28;20196;-67
2023/02/22 00:50:33;;;;;;;7.07;3.77;;;;;;;3.80;96.02;96195.53;5077977;28;20606;-68
2023/02/22 00:53:01;;;;;;;9.00;3.50;;;;;;;3.68;95.49;96200.06;5077430;28;20227;-68
2023/02/22 00:55:29;;;;;;;7.00;3.20;;;;;;;3.68;96.68;96194.84;5076956;28;20219;-67
2023/02/22 00:57:56;;;;;;;7.23;3.30;;;;;;;3.52;98.39;96191.13;5077289;28;20210;-68
2023/02/22 01:00:26;;;;;;;6.63;3.53;;;;;;;3.20;100.00;96195.72;5077940;28;20207;-70
2023/02/22 01:02:52;;;;;;;7.50;3.53;;;;;;;3.21;100.00;96186.97;5077654;28;20246;-67
2023/02/22 01:05:25;;;;;;;6.50;3.60;;;;;;;3.45;100.00;96195.25;5077240;28;20203;-67
2023/02/22 01:07:51;;;;;;;6.23;3.17;;;;;;;3.45;99.13;96191.81;5076828;28;20207;-67
2023/02/22 01:10:20;;;;;;;6.50;3.70;;;;;;;3.55;98.34;96190.03;5077776;28;20200;-67
2023/02/22 01:12:47;;;;;;;7.93;3.63;;;;;;;3.53;98.42;96190.19;5077110;28;20230;-68
2023/02/22 01:15:14;;;;;;;8.03;3.57;;;;;;;3.51;98.38;96178.25;5076802;28;20265;-70
2023/02/22 01:17:42;;;;;;;16.17;3.43;;;;;;;3.32;98.61;96188.63;5076897;28;20591;-68
2023/02/22 01:20:12;;;;;;;5.60;3.20;;;;;;;3.29;100.00;96181.09;5077389;28;20561;-67
2023/02/22 01:22:41;;;;;;;11.83;4.07;;;;;;;3.48;99.49;96183.75;5076239;28;20330;-70
2023/02/22 01:25:08;;;;;;;10.27;4.33;;;;;;;3.52;99.21;96185.09;5076721;28;20191;-67
2023/02/22 01:27:35;;;;;;;5.73;3.10;;;;;;;3.36;100.00;96180.44;5077588;28;20948;-67
2023/02/22 01:30:07;;;;;;;6.87;3.87;;;;;;;3.41;100.00;96172.19;5077132;28;20207;-67
2023/02/22 01:32:34;;;;;;;8.23;4.13;;;;;;;3.41;99.46;96173.03;5077058;28;20268;-67
2023/02/22 01:35:03;;;;;;;6.03;3.23;;;;;;;3.40;98.68;96180.97;5076912;28;20591;-67
2023/02/22 01:39:49;;;;;;;6.80;3.67;;;;;;;3.51;97.69;96186.06;5053368;28;21682;-68
2023/02/22 01:42:16;;;;;;;12.97;4.03;;;;;;;3.40;99.36;96186.16;5053697;28;20223;-68
2023/02/22 01:44:42;;;;;;;7.43;4.17;;;;;;;3.47;99.46;96185.50;5053909;28;20580;-67
2023/02/22 01:47:09;;;;;;;6.70;3.10;;;;;;;3.31;97.45;96185.22;5053389;28;20202;-68
2023/02/22 01:49:39;;;;;;;5.50;3.33;;;;;;;3.30;98.60;96173.16;5053732;28;20236;-68
2023/02/22 01:52:10;;;;;;;8.90;3.67;;;;;;;3.28;99.40;96171.63;5054038;28;20203;-68
2023/02/22 01:54:40;;;;;;;8.87;3.90;;;;;;;3.36;100.00;96169.16;5052182;28;20704;-68
2023/02/22 01:57:14;;;;;;;12.13;4.47;;;;;;;3.37;100.00;96170.81;5053411;28;20203;-67
2023/02/22 01:59:46;;;;;;;10.30;4.00;;;;;;;3.35;100.00;96170.97;5053848;28;20218;-67
2023/02/22 02:02:14;;;;;;;8.47;3.87;;;;;;;3.52;100.00;96177.28;5053473;28;20230;-67
2023/02/22 02:04:42;;;;;;;7.60;4.00;;;;;;;3.50;98.16;96171.38;5052747;28;20961;-67
2023/02/22 02:07:12;;;;;;;13.17;4.10;;;;;;;3.48;96.23;96173.31;5053600;28;20285;-67
2023/02/22 02:09:44;;;;;;;13.50;4.23;;;;;;;3.35;98.14;96167.56;5052896;28;20230;-68
2023/02/22 02:12:15;;;;;;;6.60;3.50;;;;;;;3.43;97.94;96165.91;5053197;28;20219;-68
2023/02/22 02:14:42;;;;;;;7.47;4.20;;;;;;;3.38;98.40;96157.66;5052654;28;20215;-67
2023/02/22 02:17:11;;;;;;;7.97;4.30;;;;;;;3.45;98.95;96169.19;5053554;28;20315;-67
2023/02/22 02:19:48;;;;;;;8.13;3.87;;;;;;;3.39;99.02;96169.72;5053182;28;20211;-67
2023/02/22 02:22:33;;;;;;;9.30;3.73;;;;;;;3.38;100.00;96172.47;5053038;28;20234;-68
2023/02/22 02:25:48;;;;;;;8.50;3.70;;;;;;;3.41;100.00;96167.00;5052078;28;20209;-68
2023/02/22 02:28:41;;;;;;;11.97;4.10;;;;;;;3.48;100.00;96173.31;5052440;28;20230;-67
2023/02/22 02:31:38;;;;;;;5.80;3.70;;;;;;;3.49;100.00;96170.56;5039828;28;20205;-67
2023/02/22 02:34:16;;;;;;;6.50;3.73;;;;;;;3.41;100.00;96172.19;5052526;28;20223;-67
2023/02/22 02:36:51;;;;;;;9.80;4.23;;;;;;;3.26;100.00;96173.53;5052772;28;20222;-67
2023/02/22 02:39:26;;;;;;;10.33;3.20;;;;;;;3.28;100.00;96166.44;5052775;28;20203;-68
2023/02/22 02:41:52;;;;;;;8.70;4.83;;;;;;;3.24;100.00;96159.84;5053406;28;20203;-67
2023/02/22 02:44:26;;;;;;;9.17;3.43;;;;;;;3.35;100.00;96162.34;5051582;28;20261;-68
2023/02/22 02:46:56;;;;;;;7.43;3.73;;;;;;;3.27;100.00;96142.19;5052794;28;20707;-68
2023/02/22 02:49:30;;;;;;;7.10;3.23;;;;;;;3.12;100.00;96146.13;5050155;28;20800;-67
2023/02/22 02:54:24;;;;;;;7.27;3.30;;;;;;;3.25;99.58;96140.66;5053128;27;20953;-68
2023/02/22 02:56:51;;;;;;;7.53;3.70;;;;;;;3.19;99.19;96128.19;5053864;28;20210;-67
2023/02/22 02:59:26;;;;;;;7.97;3.67;;;;;;;3.07;99.02;96126.66;5053687;28;20206;-67
2023/02/22 03:02:05;;;;;;;8.47;3.80;;;;;;;2.99;100.00;96126.50;5053844;28;20291;-67
2023/02/22 03:04:48;;;;;;;9.30;4.47;;;;;;;3.14;100.00;96119.94;5053379;28;20203;-67
2023/02/22 03:07:28;;;;;;;8.97;4.13;;;;;;;3.02;100.00;96121.84;5053305;28;20207;-67
2023/02/22 03:10:07;;;;;;;10.90;4.17;;;;;;;3.05;100.00;96115.56;5053464;28;20301;-67
2023/02/22 03:12:42;;;;;;;8.47;4.00;;;;;;;3.03;100.00;96104.47;5050838;28;20228;-68
2023/02/22 03:15:20;;;;;;;7.70;4.13;;;;;;;3.01;100.00;96111.59;5052926;28;20678;-67
2023/02/22 03:17:53;;;;;;;9.70;3.80;;;;;;;3.04;100.00;96108.69;5053224;28;20311;-68
2023/02/22 03:20:30;;;;;;;8.23;4.30;;;;;;;3.03;99.66;96099.28;5053505;28;20664;-68
2023/02/22 03:23:01;;;;;;;13.10;4.10;;;;;;;2.85;100.00;96095.69;5053183;28;21146;-68
2023/02/22 03:25:34;;;;;;;6.73;3.70;;;;;;;2.87;100.00;96088.53;5052742;28;20243;-68
2023/02/22 03:28:06;;;;;;;8.73;4.37;;;;;;;2.97;100.00;96096.38;5053014;28;20695;-68
2023/02/22 03:30:37;;;;;;;6.67;3.80;;;;;;;3.04;100.00;96090.47;5053177;28;20231;-67
2023/02/22 03:33:09;;;;;;;7.20;3.83;;;;;;;3.07;100.00;96093.66;5052650;28;20228;-68
2023/02/22 03:35:40;;;;;;;8.03;4.13;;;;;;;2.99;100.00;96087.47;5052540;28;20213;-67
2023/02/22 03:38:11;;;;;;;11.87;3.93;;;;;;;2.88;100.00;96090.19;5053176;28;20203;-67
2023/02/22 03:40:44;;;;;;;13.37;4.43;;;;;;;2.94;100.00;96089.66;5052812;28;20207;-67
2023/02/22 03:43:16;;;;;;;7.77;4.33;;;;;;;2.97;100.00;96081.59;5052699;28;20220;-67
2023/02/22 03:45:45;;;;;;;8.97;3.67;;;;;;;2.97;100.00;96086.78;5052055;28;20606;-67
2023/02/22 03:48:22;;;;;;;8.00;3.70;;;;;;;3.03;99.68;96094.06;5052592;28;20215;-67
2023/02/22 03:50:50;;;;;;;12.47;4.53;;;;;;;2.81;100.00;96099.47;5053218;28;20221;-68
2023/02/22 03:53:18;;;;;;;12.27;4.57;;;;;;;2.81;100.00;96104.69;5052535;28;20305;-68
2023/02/22 03:55:50;;;;;;;6.93;3.43;;;;;;;2.93;100.00;96093.22;5051860;28;20219;-67
2023/02/22 03:58:20;;;;;;;12.37;4.77;;;;;;;2.88;100.00;96092.81;5053269;28;20235;-67
2023/02/22 04:00:51;;;;;;;8.97;4.13;;;;;;;2.63;100.00;96095.06;5053637;28;20672;-68
2023/02/22 04:03:18;;;;;;;7.17;3.53;;;;;;;2.66;100.00;96095.63;5052365;28;20235;-68
2023/02/22 04:05:45;;;;;;;9.70;3.77;;;;;;;2.54;100.00;96101.88;5038851;28;20230;-67
2023/02/22 04:08:11;;;;;;;10.63;4.70;;;;;;;2.76;100.00;96099.09;5039042;28;20213;-68
2023/02/22 04:10:38;;;;;;;7.97;3.90;;;;;;;2.95;100.00;96093.09;5039398;28;20207;-68
2023/02/22 04:13:06;;;;;;;12.90;4.50;;;;;;;3.01;100.00;96095.97;5038993;28;20799;-68
2023/02/22 04:15:33;;;;;;;7.97;3.93;;;;;;;2.95;100.00;96093.09;5038802;28;20262;-67
2023/02/22 04:17:59;;;;;;;7.10;4.30;;;;;;;3.02;100.00;96098.44;5038742;28;20197;-67
2023/02/22 04:20:26;;;;;;;8.97;4.03;;;;;;;2.90;100.00;96098.69;5039093;28;20204;-67
2023/02/22 04:22:53;;;;;;;7.37;4.07;;;;;;;2.99;100.00;96097.06;5039267;28;20311;-68
2023/02/22 04:25:19;;;;;;;10.63;4.90;;;;;;;2.87;100.00;96092.94;5038349;28;20335;-68
2023/02/22 04:27:46;;;;;;;9.27;4.40;;;;;;;2.94;100.00;96094.88;5039147;28;20223;-68
2023/02/22 04:30:16;;;;;;;10.70;5.03;;;;;;;2.99;100.00;96095.25;5039031;28;20204;-68
2023/02/22 04:32:43;;;;;;;8.90;4.23;;;;;;;2.86;100.00;96097.31;5038504;28;20716;-68
2023/02/22 04:35:09;;;;;;;11.00;4.27;;;;;;;2.80;100.00;96092.66;5037971;28;21363;-67
2023/02/22 04:37:36;;;;;;;17.33;4.53;;;;;;;2.86;100.00;96096.50;5038824;28;20222;-68
2023/02/22 04:40:06;;;;;;;8.80;5.00;;;;;;;2.72;100.00;96100.28;5039060;28;20205;-67
2023/02/22 04:42:32;;;;;;;10.00;4.00;;;;;;;2.70;100.00;96099.59;5038707;28;20224;-67
2023/02/22 04:44:59;;;;;;;9.13;4.37;;;;;;;2.76;100.00;96090.44;5037890;28;20204;-67
2023/02/22 04:47:26;;;;;;;9.63;4.27;;;;;;;2.71;100.00;96084.81;5038552;28;20208;-68
2023/02/22 04:49:53;;;;;;;10.70;4.17;;;;;;;2.59;100.00;96089.28;5038352;28;20216;-68
2023/02/22 04:52:19;;;;;;;10.37;4.40;;;;;;;2.64;100.00;96078.50;5039595;28;21079;-68
2023/02/22 04:54:46;;;;;;;9.00;4.37;;;;;;;2.59;100.00;96084.09;5037919;28;20235;-67
2023/02/22 04:57:12;;;;;;;9.67;4.23;;;;;;;2.61;100.00;96074.41;5038467;28;20208;-68
2023/02/22 04:59:39;;;;;;;17.47;5.20;;;;;;;2.63;100.00;96074.25;5039008;28;20208;-68
2023/02/22 05:02:06;;;;;;;17.23;4.87;;;;;;;2.70;100.00;96077.97;5038416;28;20203;-67
2023/02/22 05:04:34;;;;;;;8.50;4.07;;;;;;;2.74;100.00;96080.16;5037456;28;21298;-68
2023/02/22 05:07:01;;;;;;;7.23;3.97;;;;;;;2.67;99.55;96089.47;5037655;28;21248;-67
2023/02/22 05:09:27;;;;;;;7.10;3.63;;;;;;;2.63;97.79;96088.06;5038523;28;20213;-67
2023/02/22 05:11:54;;;;;;;8.43;3.83;;;;;;;2.60;98.59;96077.94;5038767;28;20207;-67
2023/02/22 05:14:21;;;;;;;12.70;4.47;;;;;;;2.50;99.90;96078.88;5037311;28;20232;-67
2023/02/22 05:16:48;;;;;;;9.70;4.07;;;;;;;2.53;100.00;96079.44;5036924;28;20204;-68
2023/02/22 05:19:15;;;;;;;13.70;4.30;;;;;;;2.44;100.00;96077.63;5038034;28;20237;-68
2023/02/22 05:21:42;;;;;;;8.87;4.50;;;;;;;2.61;100.00;96077.00;5037549;28;20207;-68
2023/02/22 05:24:09;;;;;;;15.57;5.17;;;;;;;2.49;100.00;96078.03;5037373;28;20220;-67
2023/02/22 05:26:35;;;;;;;8.37;3.83;;;;;;;2.53;100.00;96076.00;5038325;28;20231;-67
2023/02/22 05:29:02;;;;;;;9.47;4.20;;;;;;;2.45;97.66;96075.84;5037310;28;20201;-68
2023/02/22 05:31:28;;;;;;;11.97;4.30;;;;;;;2.22;99.62;96068.38;5037719;28;20209;-68
2023/02/22 05:33:55;;;;;;;6.97;3.53;;;;;;;2.21;100.00;96071.94;5037516;28;20238;-67
2023/02/22 05:36:21;;;;;;;7.80;3.63;;;;;;;2.07;100.00;96074.88;5037716;28;20237;-68
2023/02/22 05:38:49;;;;;;;7.50;3.47;;;;;;;1.86;100.00;96068.91;5037308;28;20576;-68
2023/02/22 05:41:15;;;;;;;9.83;4.10;;;;;;;1.95;100.00;96075.94;5037737;28;20217;-68
2023/02/22 05:43:42;;;;;;;9.47;4.20;;;;;;;2.16;100.00;96077.50;5036699;28;20225;-68
2023/02/22 05:46:08;;;;;;;7.77;3.87;;;;;;;2.14;100.00;96081.19;5038143;28;20413;-68
2023/02/22 05:48:35;;;;;;;11.18;4.80;;;;;;;2.09;100.00;96075.59;5037633;28;20442;-68
2023/02/22 05:51:02;;;;;;;10.10;4.23;;;;;;;2.15;100.00;96077.63;5038169;28;20198;-68
2023/02/22 05:53:29;;;;;;;13.27;4.00;;;;;;;2.13;100.00;96072.56;5036707;28;20235;-68
2023/02/22 05:55:57;;;;;;;8.27;4.03;;;;;;;2.16;100.00;96068.91;5036713;28;20204;-68
2023/02/22 05:58:23;;;;;;;14.00;3.80;;;;;;;2.01;100.00;96075.38;5037363;28;20205;-68
2023/02/22 06:00:50;;;;;;;6.80;3.97;;;;;;;1.93;100.00;96075.22;5037046;28;20231;-68
2023/02/22 06:03:16;;;;;;;7.60;3.83;;;;;;;1.78;100.00;96079.09;5037256;28;20230;-68
2023/02/22 06:05:43;;;;;;;8.20;3.30;;;;;;;1.64;100.00;96079.41;5036686;28;20964;-68
2023/02/22 06:08:09;;;;;;;10.57;4.27;;;;;;;1.77;100.00;96081.81;5036570;28;20674;-68
2023/02/22 06:10:36;;;;;;;11.53;4.43;;;;;;;1.88;100.00;96079.97;5037298;28;20215;-68
2023/02/22 06:13:05;;;;;;;12.87;3.77;;;;;;;2.01;100.00;96068.44;5036858;28;20446;-68
2023/02/22 06:15:31;;;;;;;7.23;3.53;;;;;;;1.99;100.00;96077.31;5036325;28;20205;-68
2023/02/22 06:17:59;;;;;;;11.50;5.17;;;;;;;2.07;100.00;96072.28;5037115;28;20211;-68
2023/02/22 06:20:27;;;;;;;8.30;4.30;;;;;;;2.15;100.00;96067.25;5037186;28;20297;-68
2023/02/22 06:22:56;;;;;;;11.40;3.80;;;;;;;2.16;100.00;96074.09;5036444;28;20719;-68
2023/02/22 06:25:24;;;;;;;7.37;3.17;;;;;;;2.21;100.00;96069.34;5036812;28;20200;-68
2023/02/22 06:27:51;;;;;;;7.07;4.37;;;;;;;1.98;100.00;96080.84;5036343;28;20204;-68
2023/02/22 06:30:22;;;;;;;8.63;4.00;;;;;;;1.97;100.00;96080.03;5036646;28;20218;-68
2023/02/22 06:32:48;;;;;;;9.80;4.00;;;;;;;1.99;100.00;96087.69;5036305;28;20238;-68
2023/02/22 06:35:15;;;;;;;10.73;3.87;;;;;;;2.16;100.00;96082.69;5035739;28;20726;-68
2023/02/22 06:37:42;;;;;;;14.43;4.73;;;;;;;2.18;100.00;96087.78;5036829;28;20210;-68
2023/02/22 06:40:10;;;;;;;14.17;4.97;;;;;;;2.21;100.00;96085.75;5035628;28;20212;-68
2023/02/22 06:42:36;;;;;;;14.10;4.50;;;;;;;2.26;100.00;96087.97;5036126;28;20821;-68
2023/02/22 06:45:03;;;;;;;8.63;3.93;;;;;;;2.34;100.00;96088.94;5035475;28;20592;-68
2023/02/22 06:47:30;;;;;;;10.70;5.13;;;;;;;2.56;99.55;96092.16;5035278;28;20202;-68
2023/02/22 06:49:59;;;;;;;8.33;4.40;;;;;;;2.51;100.00;96080.53;5035992;28;20203;-68
2023/02/22 06:52:26;;;;;;;13.83;4.53;;;;;;;2.53;100.00;96086.41;5036380;28;20235;-68
2023/02/22 06:54:52;;;;;;;10.70;4.60;;;;;;;2.57;100.00;96090.38;5035085;28;20246;-68
2023/02/22 06:57:19;;;;;;;18.33;4.03;;;;;;;2.59;100.00;96094.50;5035643;28;20213;-68
2023/02/22 06:59:45;;;;;;;9.17;4.10;;;;;;;2.65;99.83;96093.16;5036931;28;20204;-68
2023/02/22 07:02:12;;;;;;;6.30;3.17;;;;;;;2.68;97.71;96092.88;5037123;28;20232;-68
2023/02/22 07:04:40;;;;;;;6.77;3.63;;;;;;;2.67;97.74;96084.28;5033385;28;21146;-68
2023/02/22 07:07:07;;;;;;;11.30;4.27;;;;;;;2.63;100.00;96090.66;5035261;28;20208;-68
2023/02/22 07:09:33;;;;;;;9.90;3.97;;;;;;;2.75;100.00;96094.00;5036272;28;20571;-68
2023/02/22 07:12:00;;;;;;;19.43;4.70;;;;;;;2.83;100.00;96094.16;5034546;28;20672;-68
2023/02/22 07:14:26;;;;;;;12.87;4.77;;;;;;;2.86;100.00;96088.69;5034977;28;20226;-68
2023/02/22 07:16:53;;;;;;;10.47;4.53;;;;;;;2.87;100.00;96093.75;5035205;28;20209;-68
2023/02/22 07:19:19;;;;;;;9.43;4.30;;;;;;;2.93;100.00;96098.44;5034617;28;20251;-68
2023/02/22 07:21:47;;;;;;;10.67;4.10;;;;;;;3.10;100.00;96095.16;5035161;28;20212;-68
2023/02/22 07:24:14;;;;;;;11.13;3.53;;;;;;;3.08;100.00;96097.06;5034749;28;20255;-68
2023/02/22 07:26:41;;;;;;;6.93;4.00;;;;;;;3.24;100.00;96090.38;5034074;28;20211;-68
2023/02/22 07:29:07;;;;;;;12.37;5.77;;;;;;;3.35;100.00;96094.63;5035017;28;20203;-68
2023/02/22 07:31:35;;;;;;;14.90;6.20;;;;;;;3.51;100.00;96094.91;5035702;28;20205;-68
2023/02/22 07:34:01;;;;;;;15.27;7.27;;;;;;;3.52;100.00;96093.94;5034559;28;20256;-68
2023/02/22 07:36:28;;;;;;;19.73;5.43;;;;;;;3.57;100.00;96094.34;5034820;28;20217;-68
2023/02/22 07:38:56;;;;;;;14.43;6.97;;;;;;;3.76;100.00;96093.34;5034943;28;20668;-68
2023/02/22 07:41:22;;;;;;;12.77;4.50;;;;;;;3.73;100.00;96085.81;5039236;28;20207;-68
2023/02/22 07:43:49;;;;;;;11.03;5.03;;;;;;;3.80;100.00;96086.91;5038554;28;20272;-68
2023/02/22 07:46:15;;;;;;;15.23;4.97;;;;;;;3.96;100.00;96083.72;5039372;28;20209;-68
2023/02/22 07:48:42;;;;;;;9.73;4.83;;;;;;;4.01;100.00;96095.38;5038899;28;20208;-68
2023/02/22 07:51:08;;;;;;;15.80;7.10;;;;;;;4.07;100.00;96091.38;5038651;28;20215;-68
2023/02/22 07:53:35;;;;;;;12.97;5.57;;;;;;;3.99;100.00;96094.69;5037904;28;20233;-68
2023/02/22 07:56:07;;;;;;;15.07;5.40;;;;;;;4.26;100.00;96081.69;5039291;28;20197;-68
2023/02/22 07:58:34;;;;;;;9.30;4.60;;;;;;;4.37;100.00;96073.72;5038379;28;20217;-68
2023/02/22 08:01:02;;;;;;;12.03;4.60;;;;;;;4.59;100.00;96081.16;5039072;28;20208;-68
2023/02/22 08:03:33;;;;;;;13.40;4.37;;;;;;;4.77;100.00;96072.41;5038162;28;20229;-68
2023/02/22 08:06:01;;;;;;;12.97;5.27;;;;;;;4.65;100.00;96081.41;5038492;28;20201;-68
2023/02/22 08:08:28;;;;;;;11.60;4.80;;;;;;;4.79;100.00;96069.66;5038258;28;20205;-68
2023/02/22 08:10:55;;;;;;;16.07;4.80;;;;;;;4.95;100.00;96068.88;5038230;28;20226;-68
2023/02/22 08:13:23;;;;;;;9.47;4.57;;;;;;;5.05;100.00;96068.78;5037661;28;20867;-68
2023/02/22 08:15:51;;;;;;;12.17;5.87;;;;;;;5.22;100.00;96071.44;5036594;28;20221;-68
2023/02/22 08:18:19;;;;;;;10.30;4.83;;;;;;;5.29;100.00;96056.78;5038313;28;20209;-68
2023/02/22 08:20:48;;;;;;;21.17;5.67;;;;;;;5.40;100.00;96064.41;5037554;28;20205;-68
2023/02/22 08:23:16;;;;;;;11.33;5.17;;;;;;;5.51;100.00;96058.94;5037325;28;20716;-68
2023/02/22 08:25:43;;;;;;;14.13;6.03;;;;;;;5.65;100.00;96068.84;5037363;28;20201;-68
2023/02/22 08:28:12;;;;;;;11.40;5.23;;;;;;;5.73;100.00;96066.34;5038286;28;20202;-68
2023/02/22 08:30:42;;;;;;;13.17;5.63;;;;;;;5.87;100.00;96068.41;5037890;28;20236;-68
2023/02/22 08:33:12;;;;;;;12.23;5.97;;;;;;;5.93;100.00;96068.63;5038391;28;20226;-68
2023/02/22 08:35:39;;;;;;;12.37;6.13;;;;;;;5.99;100.00;96068.00;5038435;28;21195;-68
2023/02/22 08:38:07;;;;;;;17.73;6.10;;;;;;;5.98;100.00;96071.59;5037550;28;20315;-68
2023/02/22 08:40:36;;;;;;;14.03;5.93;;;;;;;5.80;100.00;96068.19;5037458;28;20515;-68
2023/02/22 08:43:03;;;;;;;10.60;5.90;;;;;;;5.96;100.00;96067.47;5037521;28;21311;-68
2023/02/22 08:45:29;;;;;;;11.70;5.63;;;;;;;6.03;100.00;96068.53;5037181;28;20205;-68
2023/02/22 08:47:58;;;;;;;11.77;5.80;;;;;;;6.27;99.83;96066.88;5037492;28;20201;-68
2023/02/22 08:50:26;;;;;;;17.40;6.60;;;;;;;6.39;99.25;96056.00;5038221;28;20255;-68
2023/02/22 08:52:54;;;;;;;12.77;5.80;;;;;;;6.50;99.22;96052.28;5037588;28;20243;-68
2023/02/22 08:55:21;;;;;;;16.93;6.93;;;;;;;6.29;100.00;96055.28;5036702;28;20228;-68
2023/02/22 08:57:49;;;;;;;12.57;6.30;;;;;;;6.37;99.76;96055.31;5037971;28;20573;-68
2023/02/22 09:00:17;;;;;;;11.63;6.17;;;;;;;6.58;98.55;96052.31;5038808;28;20292;-68
2023/02/22 09:02:43;;;;;;;16.83;5.80;;;;;;;6.72;98.06;96049.91;5036819;28;20221;-68
2023/02/22 09:05:11;;;;;;;10.90;5.37;;;;;;;6.79;98.77;96050.94;5037923;28;20197;-68
2023/02/22 09:07:41;;;;;;;18.67;6.50;;;;;;;6.99;98.56;96047.88;5037026;28;20205;-68
2023/02/22 09:10:08;;;;;;;13.33;6.50;;;;;;;7.10;98.57;96054.63;5037476;28;20205;-68
2023/02/22 09:12:34;;;;;;;15.63;6.07;;;;;;;7.13;96.59;96051.66;5037652;28;20827;-68
2023/02/22 09:15:01;;;;;;;9.03;5.20;;;;;;;7.07;97.79;96047.91;5037382;28;20217;-68
2023/02/22 09:17:27;;;;;;;11.97;6.10;;;;;;;7.27;97.52;96057.94;5037051;28;20228;-68
2023/02/22 09:19:54;;;;;;;15.17;6.40;;;;;;;7.38;96.74;96054.16;5038503;28;20232;-68
2023/02/22 09:22:22;;;;;;;17.43;6.40;;;;;;;7.43;94.59;96057.13;5038296;28;20229;-68
2023/02/22 09:24:48;;;;;;;12.43;5.83;;;;;;;7.33;94.79;96049.44;5035988;28;20216;-68
2023/02/22 09:27:18;;;;;;;15.33;6.30;;;;;;;7.59;94.43;96050.09;5036301;28;20201;-68
2023/02/22 09:29:48;;;;;;;12.37;6.17;;;;;;;7.55;94.37;96051.41;5037431;28;20233;-68
2023/02/22 09:32:16;;;;;;;16.43;6.87;;;;;;;7.68;93.72;96045.69;5036629;28;20906;-68
2023/02/22 09:34:44;;;;;;;15.20;6.53;;;;;;;7.84;93.17;96038.63;5035343;28;20225;-68
2023/02/22 09:37:11;;;;;;;16.37;6.23;;;;;;;8.01;92.55;96037.63;5036358;28;20708;-68
2023/02/22 09:39:40;;;;;;;14.77;6.60;;;;;;;8.32;90.80;96033.31;5037347;28;20205;-68
2023/02/22 09:42:12;;;;;;;10.80;6.00;;;;;;;8.34;90.93;96034.81;5035505;28;20260;-68
2023/02/22 09:44:46;;;;;;;12.53;6.60;;;;;;;8.81;90.26;96028.56;5036130;28;20244;-68
2023/02/22 09:47:17;;;;;;;12.47;5.63;;;;;;;8.74;87.41;96022.31;5036254;28;20218;-68
2023/02/22 09:49:56;;;;;;;13.77;6.40;;;;;;;8.89;86.79;96025.88;5036945;28;20630;-68
2023/02/22 09:52:27;;;;;;;15.27;6.70;;;;;;;8.75;88.65;96020.53;5036865;28;20237;-68
2023/02/22 09:55:06;;;;;;;13.10;6.00;;;;;;;8.77;86.47;96024.63;5035998;28;20728;-68
2023/02/22 09:57:39;;;;;;;20.77;6.33;;;;;;;8.44;89.50;96018.84;5036138;28;20948;-68
2023/02/22 10:00:12;;;;;;;12.37;6.20;;;;;;;8.73;88.50;96022.50;5036694;28;20319;-68
2023/02/22 10:02:46;;;;;;;14.83;5.83;;;;;;;8.75;87.63;96021.34;5036912;28;20260;-69
2023/02/22 10:05:18;;;;;;;10.37;5.83;;;;;;;8.85;87.44;96015.91;5035521;28;20217;-68
2023/02/22 10:07:51;;;;;;;10.87;4.93;;;;;;;8.75;84.76;96013.47;5035499;28;20205;-69
2023/02/22 10:10:22;;;;;;;10.07;5.60;;;;;;;9.20;84.83;96016.16;5035796;28;20208;-69
2023/02/22 10:12:59;;;;;;;14.50;4.47;;;;;;;9.05;83.41;96014.47;5037192;28;20225;-68
2023/02/22 10:15:47;;;;;;;12.00;5.77;;;;;;;9.03;84.71;96012.00;5035524;28;20279;-68
2023/02/22 10:18:35;;;;;;;12.40;5.13;;;;;;;8.81;85.10;96004.91;5036581;28;20237;-68
2023/02/22 10:21:13;;;;;;;11.07;5.67;;;;;;;9.00;84.02;96003.66;5023513;28;20205;-69
2023/02/22 10:23:49;;;;;;;10.87;5.23;;;;;;;9.32;81.61;96009.53;5036049;28;20225;-69
2023/02/22 10:26:22;;;;;;;12.37;5.87;;;;;;;9.43;81.84;96006.50;5036323;28;20205;-68
2023/02/22 10:28:55;;;;;;;11.90;5.47;;;;;;;9.82;81.88;96008.78;5035914;28;20685;-68
2023/02/22 10:31:25;;;;;;;10.90;5.17;;;;;;;10.03;79.55;96006.34;5036997;28;20259;-68
2023/02/22 10:33:56;;;;;;;13.50;5.50;;;;;;;10.09;77.72;95995.06;5035690;28;20779;-68
2023/02/22 10:36:24;;;;;;;12.37;6.27;;;;;;;10.16;78.08;95997.84;5036183;28;20655;-69
2023/02/22 10:38:55;;;;;;;11.83;5.77;;;;;;;10.55;77.22;95991.28;5036625;28;20210;-68
2023/02/22 10:41:31;;;;;;;17.57;5.60;;;;;;;10.42;74.54;95991.09;5038353;28;20208;-69
2023/02/22 10:43:58;;;;;;;9.60;4.90;;;;;;;10.37;76.01;95986.41;5034386;28;20217;-69
2023/02/22 10:46:28;;;;;;;12.13;5.60;;;;;;;10.92;78.28;95983.25;5036539;28;20201;-69
2023/02/22 10:49:01;;;;;;;11.10;5.20;;;;;;;10.82;70.29;95987.97;5035997;28;20197;-69
2023/02/22 10:51:28;;;;;;;14.10;5.07;;;;;;;10.98;71.18;95984.16;5036490;28;20241;-69
2023/02/22 10:54:02;;;;;;;14.93;5.23;;;;;;;11.13;71.42;95982.28;5034657;28;20236;-69
2023/02/22 10:56:30;;;;;;;10.17;4.67;;;;;;;10.93;70.58;95976.97;5035944;28;20225;-69
2023/02/22 10:59:01;;;;;;;10.63;4.83;;;;;;;11.38;70.95;95975.66;5035924;28;20201;-69
2023/02/22 11:01:36;;;;;;;10.53;4.80;;;;;;;11.44;68.07;95974.06;5035944;28;20544;-69
2023/02/22 11:04:11;;;;;;;10.70;4.20;;;;;;;11.61;67.52;95968.41;5035213;28;20785;-69
2023/02/22 11:06:40;;;;;;;10.23;5.27;;;;;;;11.33;69.38;95972.75;5035857;28;20201;-69
2023/02/22 11:09:13;;;;;;;11.77;5.17;;;;;;;11.63;68.01;95971.66;5036187;28;20209;-69
2023/02/22 11:11:42;;;;;;;10.53;5.30;;;;;;;11.58;68.20;95961.69;5035980;28;20208;-69
2023/02/22 11:14:10;;;;;;;11.17;5.97;;;;;;;11.75;68.38;95963.03;5035400;28;20248;-69
2023/02/22 11:16:39;;;;;;;14.07;5.87;;;;;;;11.58;69.35;95958.19;5039468;28;20232;-69
2023/02/22 11:19:16;;;;;;;11.80;5.33;;;;;;;11.62;68.85;95959.44;5039481;28;21178;-69
2023/02/22 11:21:44;;;;;;;9.40;5.00;;;;;;;11.61;68.37;95949.94;5039984;28;20228;-69
2023/02/22 11:24:13;;;;;;;11.37;5.33;;;;;;;11.86;68.32;95951.13;5038929;28;20592;-69
2023/02/22 11:26:43;;;;;;;11.23;5.50;;;;;;;11.87;67.89;95944.84;5040086;28;20578;-69
2023/02/22 11:29:18;;;;;;;10.03;4.80;;;;;;;11.66;68.25;95948.34;5039783;28;20292;-69
2023/02/22 11:31:47;;;;;;;15.97;5.87;;;;;;;11.74;68.45;95934.19;5039092;28;20201;-69
2023/02/22 11:34:42;;;;;;;12.33;4.97;;;;;;;11.78;67.18;95932.81;5039179;28;20255;-69
2023/02/22 11:37:29;;;;;;;13.03;5.77;;;;;;;11.69;67.78;95936.59;5003608;28;20228;-69
2023/02/22 11:40:12;;;;;;;12.83;5.30;;;;;;;11.87;68.42;95919.25;5038927;28;20237;-69
2023/02/22 11:42:40;;;;;;;11.83;5.70;;;;;;;12.03;67.39;95918.13;5039983;28;20225;-68
2023/02/22 11:45:12;;;;;;;13.97;5.23;;;;;;;12.09;66.47;95918.19;5039191;28;20208;-69
2023/02/22 11:47:52;;;;;;;13.60;5.60;;;;;;;12.40;66.82;95922.03;5039119;28;20205;-69